Weather at Malaysian Plaza Heliport

Public forecast

Using degrees Celsius for public forecast. Weather courtesy of forecast.io.

Closest aviation weather report (METAR) to Malaysian Plaza Heliport

Closest report is Ninoy Aquino International Airport, 5.2 nm (9.7 km) SSW. Retrieved 2020/09/27 15:00 UTC (55 minutes ago):

RPLL 271500Z 22004KT 180V250 9999 FEW023CB 28/25 Q1011 NOSIG RMK A2985

Closest aviation forecast (TAF) to Malaysian Plaza Heliport

Closest forecast is Ninoy Aquino International Airport, 5.2 nm (9.7 km) SSW. Retrieved 2020/09/27 12:32 UTC (3 hours ago):

TAF RPLL 271100Z 2712/2818 23007KT 9999 FEW025 BKN250 TX34/2806Z TN26/2721Z TEMPO 2712/2718 VRB04KT SCT025 SCT100 TEMPO 2718/2724 08002KT FEW025 SCT100